Time;durP1;ratioP1;P1;durP2;ratioP2;P2;SDS_P1;SDS_P2;PMS_P1;PMS_P2;Temp;Humidity;BMP_temperature;BMP_pressure;BME280_temperature;BME280_humidity;BME280_pressure;Samples;Min_cycle;Max_cycle;Signal;HPM_P1;HPM_P2
2023/10/17 00:02:27;;;;;;;;;;;;;;;4.85;69.95;95636.59;5113730;28;984;-55
2023/10/17 00:04:53;;;;;;;;;;;;;;;4.72;70.24;95634.00;5114967;28;973;-54
2023/10/17 00:07:20;;;;;;;;;;;;;;;4.78;69.94;95636.22;5114465;28;1192;-55
2023/10/17 00:09:48;;;;;;;;;;;;;;;4.68;70.43;95629.88;5114788;28;976;-55
2023/10/17 00:14:57;;;;;;;;;;;;;;;4.54;70.98;95624.78;5114386;28;1037;-55
2023/10/17 00:17:23;;;;;;;;;;;;;;;4.61;70.86;95626.00;5114582;28;1075;-55
2023/10/17 00:19:50;;;;;;;;;;;;;;;4.55;71.07;95611.41;5114266;28;1901;-55
2023/10/17 00:22:18;;;;;;;;;;;;;;;4.64;70.90;95613.38;5114642;28;980;-55
2023/10/17 00:24:46;;;;;;;;;;;;;;;4.73;70.39;95614.50;5114328;28;1002;-55
2023/10/17 00:27:13;;;;;;;;;;;;;;;4.76;70.24;95618.72;5114491;28;960;-55
2023/10/17 00:29:39;;;;;;;;;;;;;;;4.76;70.57;95613.41;5114328;27;980;-55
2023/10/17 00:32:08;;;;;;;;;;;;;;;4.86;70.30;95603.84;5114535;28;1048;-55
2023/10/17 00:34:34;;;;;;;;;;;;;;;4.86;69.97;95595.91;5114138;28;961;-55
2023/10/17 00:37:10;;;;;;;;;;;;;;;4.97;69.57;95597.72;5114436;27;964;-55
2023/10/17 00:39:37;;;;;;;;;;;;;;;4.94;69.48;95597.97;5114218;28;1905;-54
2023/10/17 00:44:33;;;;;;;;;;;;;;;4.93;69.60;95602.41;5114037;28;1040;-54
2023/10/17 00:47:00;;;;;;;;;;;;;;;4.63;70.73;95598.47;5114345;28;1019;-55
2023/10/17 00:49:29;;;;;;;;;;;;;;;4.79;70.40;95598.16;5113900;28;1320;-55
2023/10/17 00:51:56;;;;;;;;;;;;;;;4.68;70.25;95598.09;5114254;28;1044;-54
2023/10/17 00:54:24;;;;;;;;;;;;;;;4.58;70.86;95597.94;5113920;28;1051;-55
2023/10/17 00:56:55;;;;;;;;;;;;;;;4.49;71.31;95595.97;5113984;28;1969;-55
2023/10/17 00:59:25;;;;;;;;;;;;;;;4.44;71.57;95604.25;5113606;28;1980;-55
2023/10/17 01:01:51;;;;;;;;;;;;;;;4.38;71.74;95606.50;5113866;28;956;-55
2023/10/17 01:04:19;;;;;;;;;;;;;;;4.40;72.07;95612.53;5114186;28;1287;-55
2023/10/17 01:06:46;;;;;;;;;;;;;;;4.41;71.65;95607.13;5113671;28;1153;-55
2023/10/17 01:09:18;;;;;;;;;;;;;;;4.31;72.18;95600.81;5113753;28;1048;-55
2023/10/17 01:11:45;;;;;;;;;;;;;;;4.42;71.66;95594.72;5113744;28;1083;-55
2023/10/17 01:14:18;;;;;;;;;;;;;;;4.57;71.20;95603.34;5113725;28;1059;-55
2023/10/17 01:16:51;;;;;;;;;;;;;;;4.73;70.53;95603.06;5114005;28;973;-55
2023/10/17 01:19:21;;;;;;;;;;;;;;;4.52;70.89;95605.50;5113953;28;1909;-55
2023/10/17 01:21:48;;;;;;;;;;;;;;;4.25;72.05;95603.91;5113820;28;1047;-55
2023/10/17 01:24:14;;;;;;;;;;;;;;;4.16;72.63;95612.53;5113684;28;1075;-56
2023/10/17 01:26:44;;;;;;;;;;;;;;;4.21;72.63;95605.94;5113621;28;1003;-56
2023/10/17 01:29:11;;;;;;;;;;;;;;;4.19;72.38;95597.28;5113669;28;1043;-56
2023/10/17 01:31:39;;;;;;;;;;;;;;;4.26;72.28;95606.44;5113775;28;984;-56
2023/10/17 01:34:08;;;;;;;;;;;;;;;4.31;72.38;95598.19;5113885;28;965;-55
2023/10/17 01:36:35;;;;;;;;;;;;;;;4.16;72.45;95589.53;5113755;28;1033;-56
2023/10/17 01:39:08;;;;;;;;;;;;;;;4.20;72.44;95590.16;5113741;28;2046;-56
2023/10/17 01:41:35;;;;;;;;;;;;;;;4.33;72.22;95592.78;5113332;28;1092;-56
2023/10/17 01:44:01;;;;;;;;;;;;;;;4.36;72.11;95593.38;5113734;28;1044;-56
2023/10/17 01:46:30;;;;;;;;;;;;;;;4.34;71.84;95590.00;5113394;28;1107;-56
2023/10/17 01:48:59;;;;;;;;;;;;;;;4.26;72.08;95590.56;5113457;28;1044;-56
2023/10/17 01:51:27;;;;;;;;;;;;;;;4.27;72.55;95596.72;5113333;28;1559;-55
2023/10/17 01:53:53;;;;;;;;;;;;;;;4.19;72.24;95594.63;5113706;28;1040;-56
2023/10/17 01:56:26;;;;;;;;;;;;;;;4.00;73.23;95594.25;5113594;28;1012;-56
2023/10/17 01:58:55;;;;;;;;;;;;;;;3.92;73.54;95594.78;5113185;28;1905;-56
2023/10/17 02:01:26;;;;;;;;;;;;;;;4.02;72.98;95600.25;5113358;28;1999;-56
2023/10/17 02:03:52;;;;;;;;;;;;;;;4.18;72.55;95594.72;5113302;28;1079;-56
2023/10/17 02:06:19;;;;;;;;;;;;;;;4.29;72.10;95597.44;5115090;28;1067;-56
2023/10/17 02:08:46;;;;;;;;;;;;;;;4.11;72.38;95602.25;5117171;28;1189;-56
2023/10/17 02:11:18;;;;;;;;;;;;;;;3.92;73.39;95598.28;5117140;28;1032;-56
2023/10/17 02:13:45;;;;;;;;;;;;;;;3.88;73.77;95595.97;5116888;28;1020;-56
2023/10/17 02:16:12;;;;;;;;;;;;;;;3.97;73.40;95600.59;5116837;28;1035;-56
2023/10/17 02:18:38;;;;;;;;;;;;;;;4.08;72.65;95603.34;5116624;28;1898;-55
2023/10/17 02:21:04;;;;;;;;;;;;;;;3.92;73.45;95594.78;5116736;27;1036;-56
2023/10/17 02:23:39;;;;;;;;;;;;;;;3.89;73.61;95600.31;5116644;28;1032;-56
2023/10/17 02:26:10;;;;;;;;;;;;;;;3.92;73.70;95597.44;5116679;28;1052;-55
2023/10/17 02:28:46;;;;;;;;;;;;;;;4.01;72.97;95593.31;5116576;27;1028;-56
2023/10/17 02:31:16;;;;;;;;;;;;;;;3.78;73.85;95594.94;5116518;28;1061;-56
2023/10/17 02:33:42;;;;;;;;;;;;;;;3.77;74.05;95588.78;5116436;28;1092;-56
2023/10/17 02:36:12;;;;;;;;;;;;;;;3.84;73.92;95586.56;5116437;28;1083;-56
2023/10/17 02:38:41;;;;;;;;;;;;;;;3.87;73.54;95594.28;5116509;28;1910;-56
2023/10/17 02:41:18;;;;;;;;;;;;;;;3.80;73.65;95599.16;5116677;28;964;-56
2023/10/17 02:43:47;;;;;;;;;;;;;;;3.75;73.80;95600.44;5116561;28;1047;-56
2023/10/17 02:46:14;;;;;;;;;;;;;;;3.64;73.94;95595.91;5116234;28;1071;-56
2023/10/17 02:48:42;;;;;;;;;;;;;;;3.72;74.13;95596.22;5116151;28;1099;-55
2023/10/17 02:51:31;;;;;;;;;;;;;;;3.82;73.68;95593.78;5116400;28;983;-55
2023/10/17 02:53:58;;;;;;;;;;;;;;;3.95;72.88;95597.22;5116314;28;1014;-55
2023/10/17 02:56:25;;;;;;;;;;;;;;;3.90;73.35;95594.91;5116362;28;991;-56
2023/10/17 03:01:30;;;;;;;;;;;;;;;3.86;73.90;95601.38;5116203;28;1031;-56
2023/10/17 03:03:56;;;;;;;;;;;;;;;3.87;73.47;95594.28;5116134;28;979;-57
2023/10/17 03:06:22;;;;;;;;;;;;;;;3.64;74.37;95602.06;5115969;28;957;-56
2023/10/17 03:08:51;;;;;;;;;;;;;;;3.48;75.02;95596.13;5115725;28;1185;-56
2023/10/17 03:11:26;;;;;;;;;;;;;;;3.60;74.55;95597.06;5115752;28;940;-55
2023/10/17 03:13:53;;;;;;;;;;;;;;;3.64;74.03;95594.13;5115963;28;1031;-56
2023/10/17 03:16:28;;;;;;;;;;;;;;;3.64;74.16;95599.41;5115668;28;1083;-57
2023/10/17 03:18:58;;;;;;;;;;;;;;;3.72;74.07;95597.06;5115684;28;1988;-57
2023/10/17 03:21:34;;;;;;;;;;;;;;;3.77;73.81;95595.88;5114530;28;1047;-56
2023/10/17 03:24:06;;;;;;;;;;;;;;;3.77;73.33;95591.44;5115536;28;1072;-57
2023/10/17 03:26:54;;;;;;;;;;;;;;;3.67;73.79;95591.25;5115373;28;1020;-57
2023/10/17 03:29:23;;;;;;;;;;;;;;;3.67;73.69;95588.59;5115504;27;1012;-56
2023/10/17 03:31:53;;;;;;;;;;;;;;;3.50;74.20;95591.59;5114241;28;1228;-56
2023/10/17 03:34:29;;;;;;;;;;;;;;;3.42;74.64;95588.66;5115601;28;1027;-56
2023/10/17 03:36:55;;;;;;;;;;;;;;;3.37;74.82;95585.47;5115260;28;1099;-56
2023/10/17 03:39:26;;;;;;;;;;;;;;;3.20;75.78;95590.09;5115084;28;1906;-56
2023/10/17 03:41:58;;;;;;;;;;;;;;;3.36;75.35;95597.84;5115481;28;1043;-56
2023/10/17 03:44:30;;;;;;;;;;;;;;;3.46;74.89;95600.69;5115202;28;988;-56
2023/10/17 03:47:03;;;;;;;;;;;;;;;3.48;75.36;95599.63;5115060;28;1048;-56
2023/10/17 03:49:36;;;;;;;;;;;;;;;3.63;74.50;95597.72;5114948;28;1028;-56
2023/10/17 03:52:04;;;;;;;;;;;;;;;3.40;74.96;95607.25;5114973;27;999;-56
2023/10/17 03:54:30;;;;;;;;;;;;;;;3.44;74.94;95608.72;5114804;28;1119;-56
2023/10/17 03:56:56;;;;;;;;;;;;;;;3.51;75.20;95614.44;5114965;28;957;-56
2023/10/17 03:59:38;;;;;;;;;;;;;;;3.41;75.28;95618.66;5114584;28;1973;-55
2023/10/17 04:02:05;;;;;;;;;;;;;;;3.31;75.83;95606.06;5114826;28;1094;-56
2023/10/17 04:04:49;;;;;;;;;;;;;;;3.49;74.94;95611.91;5114569;28;1095;-56
2023/10/17 04:07:16;;;;;;;;;;;;;;;3.54;74.98;95608.91;5114531;28;1133;-55
2023/10/17 04:10:02;;;;;;;;;;;;;;;3.55;74.75;95609.75;5114644;27;1087;-55
2023/10/17 04:12:38;;;;;;;;;;;;;;;3.64;74.83;95609.13;5114851;28;1058;-56
2023/10/17 04:15:07;;;;;;;;;;;;;;;3.70;74.48;95606.06;5113653;28;1048;-56
2023/10/17 04:17:36;;;;;;;;;;;;;;;3.68;74.52;95598.25;5114381;28;1048;-55
2023/10/17 04:20:11;;;;;;;;;;;;;;;3.55;74.90;95600.06;5114383;28;2005;-55
2023/10/17 04:22:38;;;;;;;;;;;;;;;3.47;75.51;95608.53;5114379;28;1096;-56
2023/10/17 04:25:32;;;;;;;;;;;;;;;3.60;75.06;95607.66;5114306;28;912;-56
2023/10/17 04:27:59;;;;;;;;;;;;;;;3.41;75.41;95600.16;5114020;28;1087;-56
2023/10/17 04:33:13;;;;;;;;;;;;;;;3.36;75.80;95599.63;5114197;28;1024;-56
2023/10/17 04:35:55;;;;;;;;;;;;;;;3.39;75.65;95588.84;5114180;28;1870;-56
2023/10/17 04:38:36;;;;;;;;;;;;;;;3.31;76.06;95592.03;5114296;28;1901;-56
2023/10/17 04:44:02;;;;;;;;;;;;;;;3.00;77.45;95582.69;5114075;28;1075;-55
2023/10/17 04:46:29;;;;;;;;;;;;;;;3.22;76.41;95590.84;5114166;27;1044;-55
2023/10/17 04:49:06;;;;;;;;;;;;;;;3.31;75.86;95590.22;5114016;28;1028;-55
2023/10/17 04:51:38;;;;;;;;;;;;;;;3.23;76.09;95605.75;5113963;28;1028;-55
2023/10/17 04:54:23;;;;;;;;;;;;;;;3.13;76.50;95597.63;5113959;28;960;-55
2023/10/17 04:57:05;;;;;;;;;;;;;;;3.13;76.67;95594.97;5114101;28;1044;-55
2023/10/17 05:02:49;;;;;;;;;;;;;;;3.31;75.74;95598.16;5113827;28;1036;-55
2023/10/17 06:18:56;;;;;;;;;;;;;;;6.17;66.86;95631.75;5116998;27;1909;-56
2023/10/17 06:21:35;;;;;;;;;;;;;;;6.24;65.46;95640.06;5116625;28;1086;-56
2023/10/17 06:26:46;;;;;;;;;;;;;;;6.17;66.49;95642.38;5116612;28;1032;-56
2023/10/17 06:34:15;;;;;;;;;;;;;;;6.19;66.52;95639.63;5116631;28;1035;-56
2023/10/17 06:36:41;;;;;;;;;;;;;;;6.28;65.85;95638.00;5116471;28;1043;-56
2023/10/17 06:39:16;;;;;;;;;;;;;;;6.34;66.80;95638.38;5116351;28;1991;-55
2023/10/17 06:41:44;;;;;;;;;;;;;;;6.59;65.10;95641.72;5116483;28;999;-55
2023/10/17 06:44:11;;;;;;;;;;;;;;;6.84;64.87;95633.41;5116421;28;964;-55
2023/10/17 06:46:40;;;;;;;;;;;;;;;7.02;64.27;95636.38;5116531;28;957;-54
2023/10/17 06:49:28;;;;;;;;;;;;;;;7.16;64.49;95637.88;5116162;28;1039;-54
2023/10/17 06:52:18;;;;;;;;;;;;;;;7.19;63.26;95642.09;5115868;28;1585;-54
2023/10/17 06:54:46;;;;;;;;;;;;;;;7.29;62.65;95632.38;5116096;28;1230;-54
2023/10/17 06:57:23;;;;;;;;;;;;;;;7.44;61.51;95632.91;5115857;28;1211;-55
2023/10/17 06:59:53;;;;;;;;;;;;;;;7.62;61.45;95636.63;5115897;28;1906;-54
2023/10/17 07:02:27;;;;;;;;;;;;;;;7.65;61.97;95646.19;5115853;28;1087;-54
2023/10/17 07:04:55;;;;;;;;;;;;;;;7.66;62.73;95639.88;5116050;28;968;-54
2023/10/17 07:07:31;;;;;;;;;;;;;;;7.67;61.33;95641.59;5115640;28;1153;-54
2023/10/17 07:12:50;;;;;;;;;;;;;;;7.93;61.37;95636.69;5116045;28;1016;-54
2023/10/17 07:15:19;;;;;;;;;;;;;;;7.92;64.10;95631.47;5115754;28;1028;-54
2023/10/17 07:17:49;;;;;;;;;;;;;;;7.97;63.71;95635.44;5115583;28;1087;-54
2023/10/17 07:21:08;;;;;;;;;;;;;;;7.80;63.20;95644.88;5115343;28;1964;-54
2023/10/17 07:23:13;;;;;;;;;;;;;;;7.96;63.73;95635.56;5115480;28;1162;-54
2023/10/17 07:25:39;;;;;;;;;;;;;;;8.17;63.22;95639.00;5115554;28;961;-54
2023/10/17 07:28:06;;;;;;;;;;;;;;;8.33;63.49;95638.53;5115416;28;1303;-54
2023/10/17 07:30:48;;;;;;;;;;;;;;;8.29;62.02;95641.56;5115499;28;1051;-54
2023/10/17 07:33:17;;;;;;;;;;;;;;;8.23;62.26;95637.63;5115552;27;968;-55
2023/10/17 07:35:44;;;;;;;;;;;;;;;8.05;60.89;95634.75;5115422;28;999;-54
2023/10/17 07:38:14;;;;;;;;;;;;;;;8.07;61.82;95634.63;5114175;28;1987;-54
2023/10/17 07:43:08;;;;;;;;;;;;;;;8.07;60.72;95632.81;5115011;28;1119;-54
2023/10/17 07:45:41;;;;;;;;;;;;;;;8.12;60.82;95635.06;5115233;28;953;-54
2023/10/17 07:48:26;;;;;;;;;;;;;;;8.38;60.86;95633.63;5115189;28;1032;-54
2023/10/17 07:50:57;;;;;;;;;;;;;;;8.46;59.90;95627.66;5115209;28;1027;-54
2023/10/17 07:53:23;;;;;;;;;;;;;;;8.56;59.81;95628.50;5115209;27;956;-54
2023/10/17 07:55:52;;;;;;;;;;;;;;;8.71;59.70;95617.47;5114749;28;1040;-54
2023/10/17 07:58:35;;;;;;;;;;;;;;;8.75;59.18;95614.38;5114690;28;1929;-55
2023/10/17 08:01:07;;;;;;;;;;;;;;;8.89;59.24;95617.63;5114782;28;1868;-55
2023/10/17 08:03:34;;;;;;;;;;;;;;;8.94;58.64;95615.38;5114248;28;1023;-54
2023/10/17 08:08:42;;;;;;;;;;;;;;;8.97;58.54;95609.75;5114449;28;1141;-55
2023/10/17 08:11:24;;;;;;;;;;;;;;;8.94;57.64;95615.38;5114915;28;976;-54
2023/10/17 08:13:50;;;;;;;;;;;;;;;9.13;58.54;95611.88;5114814;28;1225;-55
2023/10/17 08:16:24;;;;;;;;;;;;;;;9.27;57.78;95606.09;5114539;28;1027;-54
2023/10/17 08:18:58;;;;;;;;;;;;;;;9.43;57.42;95600.19;5114346;28;1906;-54
2023/10/17 08:21:35;;;;;;;;;;;;;;;9.31;57.31;95603.97;5114281;28;1090;-55
2023/10/17 08:24:02;;;;;;;;;;;;;;;9.32;58.24;95603.84;5114415;28;1087;-54
2023/10/17 08:26:40;;;;;;;;;;;;;;;9.42;57.93;95600.31;5114555;28;1051;-54
2023/10/17 08:29:08;;;;;;;;;;;;;;;9.38;57.35;95605.94;5114322;28;1028;-55
2023/10/17 08:31:44;;;;;;;;;;;;;;;9.32;56.97;95608.34;5114135;28;1304;-54
2023/10/17 08:34:12;;;;;;;;;;;;;;;9.53;57.60;95600.16;5114448;28;999;-56
2023/10/17 08:39:26;;;;;;;;;;;;;;;9.53;56.05;95602.84;5114215;28;2057;-58
2023/10/17 08:42:05;;;;;;;;;;;;;;;9.65;55.89;95598.16;5113233;28;972;-57
2023/10/17 08:44:37;;;;;;;;;;;;;;;9.69;56.06;95607.56;5114005;28;1040;-58
2023/10/17 08:47:03;;;;;;;;;;;;;;;9.78;55.80;95596.84;5114325;28;1039;-57
2023/10/17 08:49:31;;;;;;;;;;;;;;;9.75;55.87;95598.97;5114029;28;988;-56
2023/10/17 08:51:57;;;;;;;;;;;;;;;9.77;55.35;95597.84;5113998;28;1091;-57
2023/10/17 08:54:30;;;;;;;;;;;;;;;9.82;55.50;95600.06;5113835;28;1024;-57
2023/10/17 08:56:59;;;;;;;;;;;;;;;9.75;55.27;95598.97;5114225;28;1031;-58
2023/10/17 09:05:01;;;;;;;;;;;;;;;10.00;55.22;95599.31;5114119;28;1044;-56
2023/10/17 09:07:32;;;;;;;;;;;;;;;9.99;54.46;95597.63;5113839;28;1217;-56
2023/10/17 09:10:15;;;;;;;;;;;;;;;9.96;54.71;95599.63;5113914;28;1000;-56
2023/10/17 09:13:15;;;;;;;;;;;;;;;9.94;54.99;95595.38;5113758;28;1048;-56
2023/10/17 09:15:47;;;;;;;;;;;;;;;10.10;55.09;95592.94;5116176;28;1482;-56
2023/10/17 09:18:14;;;;;;;;;;;;;;;10.19;54.08;95591.22;5117810;28;1914;-56
2023/10/17 09:20:40;;;;;;;;;;;;;;;10.17;54.77;95579.84;5117996;28;1030;-56
2023/10/17 09:23:27;;;;;;;;;;;;;;;10.14;54.24;95570.28;5117850;27;1130;-56
2023/10/17 09:25:56;;;;;;;;;;;;;;;10.31;54.11;95574.03;5117757;28;1112;-56
2023/10/17 09:28:24;;;;;;;;;;;;;;;10.43;54.28;95571.16;5117616;28;1048;-56
2023/10/17 09:31:06;;;;;;;;;;;;;;;10.31;54.25;95566.00;5117666;28;1075;-56
2023/10/17 09:33:33;;;;;;;;;;;;;;;10.29;54.19;95562.63;5117572;28;1083;-56
2023/10/17 09:36:06;;;;;;;;;;;;;;;10.43;54.64;95560.47;5117523;28;1174;-56
2023/10/17 09:38:33;;;;;;;;;;;;;;;10.43;54.27;95553.25;5117751;28;1906;-56
2023/10/17 09:41:02;;;;;;;;;;;;;;;10.51;53.18;95555.22;5117547;28;1864;-56
2023/10/17 09:43:29;;;;;;;;;;;;;;;10.53;54.33;95551.38;5117512;28;999;-56
2023/10/17 09:46:01;;;;;;;;;;;;;;;10.62;54.67;95546.94;5117408;28;1079;-56
2023/10/17 09:48:32;;;;;;;;;;;;;;;10.61;54.67;95539.94;5117310;28;1115;-56
2023/10/17 09:51:01;;;;;;;;;;;;;;;10.61;53.81;95544.44;5117606;28;1015;-56
2023/10/17 09:53:30;;;;;;;;;;;;;;;10.57;54.01;95533.22;5116283;28;977;-56
2023/10/17 09:55:58;;;;;;;;;;;;;;;10.66;54.09;95534.97;5117051;28;1845;-54
2023/10/17 09:58:28;;;;;;;;;;;;;;;10.82;54.41;95525.44;5116738;28;1913;-54
2023/10/17 10:00:56;;;;;;;;;;;;;;;10.90;53.83;95520.13;5117132;28;949;-54
2023/10/17 10:03:24;;;;;;;;;;;;;;;10.83;53.92;95514.59;5116964;28;981;-54
2023/10/17 10:05:53;;;;;;;;;;;;;;;10.75;53.73;95512.66;5117271;28;1043;-54
2023/10/17 10:08:26;;;;;;;;;;;;;;;10.81;54.03;95505.00;5117092;28;1157;-55
2023/10/17 10:10:53;;;;;;;;;;;;;;;10.90;53.54;95504.91;5116704;28;1095;-55
2023/10/17 10:13:19;;;;;;;;;;;;;;;10.99;52.99;95496.97;5116858;28;1031;-54
2023/10/17 10:15:58;;;;;;;;;;;;;;;10.92;53.85;95494.06;5116837;28;1076;-54
2023/10/17 10:18:49;;;;;;;;;;;;;;;10.97;53.76;95491.78;5116919;28;2005;-53
2023/10/17 10:21:15;;;;;;;;;;;;;;;10.94;53.72;95492.91;5109426;28;1785;-54
2023/10/17 10:23:45;;;;;;;;;;;;;;;10.94;54.01;95500.09;5116852;27;964;-54
2023/10/17 10:26:11;;;;;;;;;;;;;;;11.09;53.29;95495.88;5115928;28;1023;-56
2023/10/17 10:28:37;;;;;;;;;;;;;;;11.26;53.77;95485.28;5116936;28;1043;-54
2023/10/17 10:31:26;;;;;;;;;;;;;;;11.21;53.28;95492.94;5116578;28;1020;-53
2023/10/17 10:33:53;;;;;;;;;;;;;;;11.04;53.39;95484.81;5108548;28;1193;-53
2023/10/17 10:36:19;;;;;;;;;;;;;;;11.25;53.61;95486.28;5116410;28;1024;-54
2023/10/17 10:38:45;;;;;;;;;;;;;;;11.36;53.22;95477.16;5116604;28;1917;-54
2023/10/17 10:41:13;;;;;;;;;;;;;;;11.47;51.78;95487.59;5116533;28;1003;-53
2023/10/17 10:43:40;;;;;;;;;;;;;;;11.56;51.19;95483.97;5116309;28;1110;-53
2023/10/17 10:46:08;;;;;;;;;;;;;;;11.47;52.50;95474.22;5116419;28;968;-54
2023/10/17 10:48:34;;;;;;;;;;;;;;;11.38;52.72;95476.00;5116325;28;952;-54
2023/10/17 10:51:00;;;;;;;;;;;;;;;11.33;52.57;95473.81;5116200;27;1170;-54
2023/10/17 10:53:30;;;;;;;;;;;;;;;11.28;51.88;95472.59;5115978;28;960;-54
2023/10/17 10:56:00;;;;;;;;;;;;;;;11.31;54.02;95464.25;5116346;28;1199;-55
2023/10/17 10:58:26;;;;;;;;;;;;;;;11.39;54.14;95466.97;5115843;28;1983;-55
2023/10/17 11:00:58;;;;;;;;;;;;;;;11.44;53.46;95459.31;5116044;28;1024;-54
2023/10/17 11:03:24;;;;;;;;;;;;;;;11.47;54.31;95455.47;5116007;28;1024;-55
2023/10/17 11:05:50;;;;;;;;;;;;;;;11.54;52.98;95464.56;5115899;28;1028;-54
2023/10/17 11:08:16;;;;;;;;;;;;;;;11.62;54.00;95455.72;5115614;28;1149;-54
2023/10/17 11:10:42;;;;;;;;;;;;;;;11.62;52.92;95456.53;5115774;28;1028;-54
2023/10/17 11:13:08;;;;;;;;;;;;;;;11.50;53.70;95450.63;5114868;28;1027;-54
2023/10/17 11:15:39;;;;;;;;;;;;;;;11.44;57.70;95435.22;5115808;28;991;-55
2023/10/17 11:18:09;;;;;;;;;;;;;;;11.42;57.29;95444.38;5115950;28;1983;-55
2023/10/17 11:20:35;;;;;;;;;;;;;;;11.49;60.50;95437.41;5115886;28;1031;-55
2023/10/17 11:23:06;;;;;;;;;;;;;;;11.35;64.06;95436.16;5115515;28;1064;-55
2023/10/17 11:25:34;;;;;;;;;;;;;;;11.27;63.56;95444.16;5115699;28;1128;-54
2023/10/17 11:28:02;;;;;;;;;;;;;;;11.30;68.15;95439.31;5115654;28;1039;-55
2023/10/17 11:30:35;;;;;;;;;;;;;;;11.29;72.41;95450.19;5115702;28;1051;-54
2023/10/17 11:33:04;;;;;;;;;;;;;;;11.16;73.14;95433.72;5115448;28;1028;-55
2023/10/17 11:35:30;;;;;;;;;;;;;;;11.02;75.15;95441.31;5115217;28;1095;-55
2023/10/17 11:37:57;;;;;;;;;;;;;;;10.93;74.93;95439.59;5114721;28;1051;-54
2023/10/17 11:41:06;;;;;;;;;;;;;;;10.95;77.87;95442.94;5114914;28;1987;-55
2023/10/17 11:43:28;;;;;;;;;;;;;;;10.86;80.35;95446.56;5113061;28;1176;-55
2023/10/17 11:45:56;;;;;;;;;;;;;;;10.78;78.44;95446.50;5115113;28;1083;-55
2023/10/17 11:48:26;;;;;;;;;;;;;;;10.73;81.42;95439.75;5115238;28;995;-55
2023/10/17 11:51:07;;;;;;;;;;;;;;;10.75;78.72;95437.75;5115330;28;1048;-55
2023/10/17 11:53:34;;;;;;;;;;;;;;;10.81;76.54;95443.50;5115210;28;1055;-56
2023/10/17 11:56:01;;;;;;;;;;;;;;;10.81;81.79;95435.47;5114994;28;1014;-55
2023/10/17 11:58:32;;;;;;;;;;;;;;;10.73;83.74;95439.75;5113480;28;1905;-56
2023/10/17 12:00:59;;;;;;;;;;;;;;;10.71;81.93;95436.41;5115129;28;1257;-55
2023/10/17 12:03:27;;;;;;;;;;;;;;;10.69;84.30;95438.38;5114802;28;1035;-56
2023/10/17 12:05:54;;;;;;;;;;;;;;;10.73;85.04;95433.56;5115053;27;1011;-55
2023/10/17 12:08:23;;;;;;;;;;;;;;;10.74;83.53;95436.09;5114568;28;1204;-55
2023/10/17 12:10:50;;;;;;;;;;;;;;;10.65;87.45;95439.69;5114633;28;1015;-56
2023/10/17 12:13:17;;;;;;;;;;;;;;;10.67;88.95;95436.88;5114779;28;987;-55
2023/10/17 12:15:44;;;;;;;;;;;;;;;10.64;88.69;95438.03;5114787;28;1040;-55
2023/10/17 12:18:11;;;;;;;;;;;;;;;10.46;89.66;95446.03;5114401;28;1979;-56
2023/10/17 12:20:40;;;;;;;;;;;;;;;10.52;89.57;95439.25;5114453;28;1024;-55
2023/10/17 12:23:10;;;;;;;;;;;;;;;10.49;91.61;95443.06;5114497;28;1035;-55
2023/10/17 12:25:37;;;;;;;;;;;;;;;10.55;90.43;95449.66;5113206;28;1932;-55
2023/10/17 12:28:03;;;;;;;;;;;;;;;10.61;91.33;95443.69;5114661;28;925;-55
2023/10/17 12:30:35;;;;;;;;;;;;;;;10.52;91.99;95442.75;5114153;28;1024;-55
2023/10/17 12:33:02;;;;;;;;;;;;;;;10.62;88.30;95441.84;5114406;28;1053;-56
2023/10/17 12:35:28;;;;;;;;;;;;;;;10.51;89.85;95440.25;5114162;28;1036;-56
2023/10/17 12:37:57;;;;;;;;;;;;;;;10.45;89.23;95438.16;5114440;28;1070;-56
2023/10/17 12:40:24;;;;;;;;;;;;;;;10.44;89.32;95442.69;5114288;28;1989;-56
2023/10/17 12:42:51;;;;;;;;;;;;;;;10.34;90.30;95442.78;5114166;28;1051;-55
2023/10/17 12:45:18;;;;;;;;;;;;;;;10.24;91.48;95444.63;5114162;28;1555;-56
2023/10/17 12:47:44;;;;;;;;;;;;;;;10.33;90.91;95446.41;5114197;28;1264;-56
2023/10/17 12:50:11;;;;;;;;;;;;;;;10.21;91.75;95442.28;5113717;28;1079;-56
2023/10/17 12:52:38;;;;;;;;;;;;;;;10.03;94.73;95434.22;5113976;28;1051;-55
2023/10/17 12:55:04;;;;;;;;;;;;;;;10.06;93.65;95435.78;5114219;28;964;-56
2023/10/17 12:57:30;;;;;;;;;;;;;;;10.12;94.22;95436.00;5113817;28;1225;-56
2023/10/17 12:59:59;;;;;;;;;;;;;;;10.06;93.33;95435.78;5113767;28;1981;-56
2023/10/17 13:02:29;;;;;;;;;;;;;;;10.11;96.47;95442.34;5113723;28;1048;-55
2023/10/17 13:04:55;;;;;;;;;;;;;;;10.12;95.95;95436.00;5114070;28;1072;-56
2023/10/17 13:07:23;;;;;;;;;;;;;;;10.01;96.36;95432.72;5113969;28;1205;-56
2023/10/17 13:09:49;;;;;;;;;;;;;;;9.95;97.14;95439.50;5113921;28;1015;-55
2023/10/17 13:12:15;;;;;;;;;;;;;;;9.85;98.86;95433.38;5111615;28;1083;-56
2023/10/17 13:14:41;;;;;;;;;;;;;;;10.09;95.40;95422.09;5113385;28;1263;-56
2023/10/17 13:17:11;;;;;;;;;;;;;;;10.08;96.71;95418.59;5113807;28;916;-56
2023/10/17 13:19:42;;;;;;;;;;;;;;;10.12;95.71;95419.97;5113581;28;1886;-56
2023/10/17 13:22:14;;;;;;;;;;;;;;;10.16;94.25;95425.84;5113804;28;988;-56
2023/10/17 13:24:41;;;;;;;;;;;;;;;10.10;94.76;95432.63;5113492;28;1577;-56
2023/10/17 13:27:07;;;;;;;;;;;;;;;10.03;95.35;95425.38;5113648;28;1131;-56
2023/10/17 13:29:33;;;;;;;;;;;;;;;10.12;94.46;95427.16;5113601;28;1303;-56
2023/10/17 13:32:00;;;;;;;;;;;;;;;10.11;95.98;95426.31;5113622;28;988;-56
2023/10/17 13:34:28;;;;;;;;;;;;;;;10.04;95.92;95427.91;5113253;28;1079;-56
2023/10/17 13:36:54;;;;;;;;;;;;;;;9.99;96.86;95422.16;5112312;28;1095;-56
2023/10/17 13:39:24;;;;;;;;;;;;;;;9.91;97.93;95417.56;5113389;28;1934;-56
2023/10/17 13:41:50;;;;;;;;;;;;;;;9.93;94.79;95418.25;5113579;28;1032;-56
2023/10/17 13:44:16;;;;;;;;;;;;;;;9.97;93.97;95418.81;5113450;28;1185;-56
2023/10/17 13:46:42;;;;;;;;;;;;;;;10.03;94.73;95420.03;5113832;28;980;-56
2023/10/17 13:49:11;;;;;;;;;;;;;;;10.06;94.44;95409.88;5113369;28;1086;-56
2023/10/17 13:51:40;;;;;;;;;;;;;;;10.08;93.94;95415.91;5113729;28;999;-56
2023/10/17 13:54:13;;;;;;;;;;;;;;;10.12;95.31;95416.47;5113348;28;1235;-56
2023/10/17 13:56:40;;;;;;;;;;;;;;;10.03;95.58;95410.19;5113676;28;1007;-56
2023/10/17 13:59:09;;;;;;;;;;;;;;;9.97;94.67;95411.63;5113216;28;1913;-56
2023/10/17 14:01:47;;;;;;;;;;;;;;;10.05;95.48;95410.88;5114256;28;1322;-56
2023/10/17 14:04:13;;;;;;;;;;;;;;;10.06;94.55;95409.88;5116754;28;1083;-57
2023/10/17 14:06:40;;;;;;;;;;;;;;;10.03;95.36;95404.00;5117084;27;1228;-57
2023/10/17 14:09:17;;;;;;;;;;;;;;;10.01;95.45;95406.00;5116525;28;1091;-57
2023/10/17 14:11:46;;;;;;;;;;;;;;;10.02;95.70;95407.69;5117123;28;1019;-57
2023/10/17 14:14:13;;;;;;;;;;;;;;;10.04;95.58;95409.22;5115424;28;1043;-57
2023/10/17 14:16:42;;;;;;;;;;;;;;;10.14;96.22;95409.13;5117070;28;976;-56
2023/10/17 14:25:00;;;;;;;;;;;;;;;9.78;98.32;95401.06;5116446;28;1045;-56
2023/10/17 14:27:29;;;;;;;;;;;;;;;9.80;98.38;95404.44;5116931;28;956;-56
2023/10/17 14:29:59;;;;;;;;;;;;;;;9.95;97.37;95402.09;5116628;28;1075;-56
2023/10/17 14:32:26;;;;;;;;;;;;;;;10.02;97.30;95391.66;5116510;28;1048;-56
2023/10/17 14:34:53;;;;;;;;;;;;;;;10.02;97.24;95380.97;5116314;28;1213;-56
2023/10/17 14:37:23;;;;;;;;;;;;;;;10.04;97.72;95385.16;5116336;28;1566;-56
2023/10/17 14:39:52;;;;;;;;;;;;;;;10.09;97.98;95376.69;5116678;27;2336;-56
2023/10/17 14:42:19;;;;;;;;;;;;;;;10.03;98.93;95379.97;5116593;28;1028;-55
2023/10/17 14:44:52;;;;;;;;;;;;;;;9.95;97.60;95376.22;5116242;28;1032;-55
2023/10/17 14:47:18;;;;;;;;;;;;;;;10.02;96.58;95376.47;5116566;28;992;-56
2023/10/17 14:49:48;;;;;;;;;;;;;;;10.04;96.54;95374.47;5116238;28;1015;-56
2023/10/17 14:52:15;;;;;;;;;;;;;;;10.06;96.65;95371.66;5116424;28;1055;-55
2023/10/17 14:54:42;;;;;;;;;;;;;;;10.03;95.75;95374.63;5116200;28;1249;-55
2023/10/17 14:57:10;;;;;;;;;;;;;;;10.05;96.87;95373.47;5116112;28;1043;-56
2023/10/17 14:59:40;;;;;;;;;;;;;;;10.00;96.83;95373.09;5115863;27;2003;-55
2023/10/17 15:02:07;;;;;;;;;;;;;;;9.96;96.75;95371.72;5116342;28;1063;-56
2023/10/17 15:04:35;;;;;;;;;;;;;;;10.01;96.14;95368.59;5115857;28;1065;-56
2023/10/17 15:07:03;;;;;;;;;;;;;;;10.00;96.56;95370.44;5116167;28;1216;-54
2023/10/17 15:09:29;;;;;;;;;;;;;;;9.96;95.33;95363.72;5116096;28;1040;-55
2023/10/17 15:11:55;;;;;;;;;;;;;;;9.98;95.84;95364.41;5116095;28;1027;-55
2023/10/17 15:14:22;;;;;;;;;;;;;;;9.87;97.36;95357.44;5115535;28;1189;-54
2023/10/17 15:16:48;;;;;;;;;;;;;;;9.89;97.32;95363.47;5115863;28;1039;-55
2023/10/17 15:19:15;;;;;;;;;;;;;;;9.97;95.83;95360.88;5115489;28;1914;-55
2023/10/17 15:21:41;;;;;;;;;;;;;;;9.96;96.18;95363.72;5115613;28;1052;-55